KAPN

Alpena County Regional Airport

Alpena, Michigan, USA
METAR KAPN 232210Z AUTO 27005KT 10SM OVC016 05/03 A3000 RMK AO2 T00500033
Observed Flight Rules
Feb-23 @ 22:10 UTC (28 minutes ago) Marginal Visual Flight Rules
Wind Visibility Clouds
270° at 5 knots 10 miles
  • Overcast at 1,600' AGL
Temperatures Readings
Current 5°C / 41°F
Dewpoint 3°C / 37°F
Humidity 87%
Altimeter 30" Hg
Pressure 1016 hPa
Elevation 210
METAR KAPN 232210Z AUTO 27005KT 10SM OVC016 05/03 A3000 RMK AO2 T00500033
Observed Flight Rules
Feb-23 @ 22:10 UTC
(28 minutes ago)
MVFR
Wind Visibility
270° at 5 knots 10 miles
Clouds
  • Overcast at 1,600' AGL
Temperature Dewpoint
5°C / 41°F 3°C / 37°F
Humidity Altimeter Pressure
87% 30" Hg 1016 hPa